Time;durP1;ratioP1;P1;durP2;ratioP2;P2;SDS_P1;SDS_P2;PMS_P1;PMS_P2;Temp;Humidity;BMP_temperature;BMP_pressure;BME280_temperature;BME280_humidity;BME280_pressure;Samples;Min_cycle;Max_cycle;Signal;HPM_P1;HPM_P2
2024/03/03 00:01:12;;;;;;;2.27;2.07;;;10.90;99.90;;;;;;5049140;28;20469;-46
2024/03/03 00:03:42;;;;;;;2.80;2.00;;;10.90;99.90;;;;;;5049949;28;20441;-53
2024/03/03 00:06:12;;;;;;;3.43;2.40;;;10.90;99.90;;;;;;5049734;28;20974;-46
2024/03/03 00:08:41;;;;;;;3.23;2.60;;;10.90;99.90;;;;;;5051849;28;20957;-47
2024/03/03 00:11:12;;;;;;;2.63;2.27;;;10.90;99.90;;;;;;5050831;28;20666;-47
2024/03/03 00:13:42;;;;;;;3.30;2.30;;;11.00;99.90;;;;;;5046803;28;20451;-46
2024/03/03 00:16:10;;;;;;;2.87;1.90;;;10.90;99.90;;;;;;5046752;28;20495;-47
2024/03/03 00:18:40;;;;;;;5.20;2.80;;;10.90;99.90;;;;;;5047333;28;20512;-50
2024/03/03 00:21:13;;;;;;;2.80;2.43;;;10.90;99.90;;;;;;5045358;28;20538;-49
2024/03/03 00:23:42;;;;;;;3.53;2.53;;;10.90;99.90;;;;;;5050749;28;20485;-46
2024/03/03 00:26:12;;;;;;;3.60;2.40;;;10.90;99.90;;;;;;5057364;28;20476;-46
2024/03/03 00:28:43;;;;;;;3.80;2.67;;;10.90;99.90;;;;;;5053673;28;20431;-47
2024/03/03 00:31:11;;;;;;;3.50;2.70;;;10.90;99.90;;;;;;5045400;28;20457;-46
2024/03/03 00:33:42;;;;;;;3.30;2.50;;;10.90;99.90;;;;;;5033723;28;20788;-47
2024/03/03 00:36:11;;;;;;;2.70;2.40;;;10.90;99.90;;;;;;5028227;28;21068;-46
2024/03/03 00:38:42;;;;;;;3.00;2.70;;;10.90;99.90;;;;;;5052384;28;20506;-48
2024/03/03 00:41:10;;;;;;;3.47;3.17;;;10.90;99.90;;;;;;5052157;28;20466;-48
2024/03/03 00:43:42;;;;;;;3.10;2.50;;;10.90;99.90;;;;;;5033142;28;20492;-44
2024/03/03 00:46:11;;;;;;;3.70;2.73;;;10.90;99.90;;;;;;5052231;28;20486;-45
2024/03/03 00:48:42;;;;;;;4.27;2.40;;;10.90;99.90;;;;;;5029750;28;20446;-50
2024/03/03 00:51:12;;;;;;;3.87;2.20;;;10.90;99.90;;;;;;5046510;28;20830;-46
2024/03/03 00:53:42;;;;;;;4.50;3.10;;;10.90;99.90;;;;;;5052097;28;20492;-45
2024/03/03 00:56:11;;;;;;;4.37;3.53;;;10.90;99.90;;;;;;5051765;28;20474;-45
2024/03/03 00:58:43;;;;;;;2.80;2.10;;;10.90;99.90;;;;;;5048708;28;20498;-45
2024/03/03 01:01:14;;;;;;;2.87;2.27;;;10.90;99.90;;;;;;5052082;28;20464;-45
2024/03/03 01:03:43;;;;;;;3.00;2.40;;;10.90;99.90;;;;;;5048653;28;20441;-46
2024/03/03 01:06:12;;;;;;;4.40;2.73;;;10.90;99.90;;;;;;5045147;28;20457;-45
2024/03/03 01:08:41;;;;;;;3.30;2.23;;;10.90;99.90;;;;;;5033658;28;20444;-45
2024/03/03 01:11:12;;;;;;;2.37;1.80;;;10.90;99.90;;;;;;5051441;28;20461;-48
2024/03/03 01:13:43;;;;;;;3.43;2.10;;;10.90;99.90;;;;;;5046105;28;20808;-45
2024/03/03 01:16:12;;;;;;;2.40;2.10;;;10.90;99.90;;;;;;5051265;28;21013;-45
2024/03/03 01:18:42;;;;;;;3.60;2.50;;;10.90;99.90;;;;;;5029527;28;20444;-50
2024/03/03 01:21:12;;;;;;;4.13;2.07;;;10.90;99.90;;;;;;5045730;28;20557;-46
2024/03/03 01:23:42;;;;;;;4.07;1.80;;;10.90;99.90;;;;;;5037187;28;20442;-47
2024/03/03 01:26:10;;;;;;;2.53;2.00;;;10.90;99.90;;;;;;5033424;28;20470;-46
2024/03/03 01:28:42;;;;;;;2.67;2.10;;;10.90;99.90;;;;;;5046921;28;20459;-48
2024/03/03 01:31:12;;;;;;;2.00;1.80;;;10.90;99.90;;;;;;5051296;28;20985;-45
2024/03/03 01:33:41;;;;;;;3.37;2.20;;;10.90;99.90;;;;;;5031710;28;20438;-47
2024/03/03 01:36:13;;;;;;;3.80;2.57;;;10.90;99.90;;;;;;5027779;28;20469;-45
2024/03/03 01:38:42;;;;;;;4.03;2.63;;;10.90;99.90;;;;;;5051274;28;20491;-46
2024/03/03 01:41:12;;;;;;;3.70;3.33;;;10.90;99.90;;;;;;5033909;28;20484;-46
2024/03/03 01:43:43;;;;;;;3.40;2.10;;;10.90;99.90;;;;;;5049448;28;20461;-45
2024/03/03 01:46:12;;;;;;;4.57;2.67;;;10.90;99.90;;;;;;5032381;28;20835;-46
2024/03/03 01:48:41;;;;;;;3.13;2.70;;;10.90;99.90;;;;;;5030446;28;20450;-48
2024/03/03 01:51:13;;;;;;;2.83;2.57;;;10.90;99.90;;;;;;5045108;28;20795;-45
2024/03/03 01:53:48;;;;;;;3.60;2.60;;;10.90;99.90;;;;;;5032914;28;20538;-46
2024/03/03 01:56:16;;;;;;;2.47;2.10;;;10.90;99.90;;;;;;5037885;28;20473;-46
2024/03/03 01:58:47;;;;;;;3.17;2.50;;;10.90;99.90;;;;;;5020088;28;20820;-45
2024/03/03 02:01:16;;;;;;;3.63;2.47;;;10.90;99.90;;;;;;5048670;28;20464;-47
2024/03/03 02:03:45;;;;;;;2.97;2.07;;;10.90;99.90;;;;;;5030946;28;20462;-46
2024/03/03 02:06:16;;;;;;;4.87;2.20;;;10.90;99.90;;;;;;5023840;28;20585;-45
2024/03/03 02:08:48;;;;;;;3.00;2.17;;;10.90;99.90;;;;;;5043984;28;20446;-46
2024/03/03 02:11:16;;;;;;;3.50;1.77;;;10.90;99.90;;;;;;5050664;28;20470;-47
2024/03/03 02:13:47;;;;;;;2.73;1.97;;;10.90;99.90;;;;;;5050436;28;20430;-46
2024/03/03 02:16:16;;;;;;;2.37;1.70;;;10.90;99.90;;;;;;5032731;28;20928;-46
2024/03/03 02:18:45;;;;;;;2.80;2.20;;;10.90;99.90;;;;;;5031139;28;20843;-46
2024/03/03 02:21:14;;;;;;;3.03;2.20;;;10.90;99.90;;;;;;5045499;28;20512;-47
2024/03/03 02:23:44;;;;;;;3.20;2.70;;;10.90;99.90;;;;;;5051045;28;20425;-45
2024/03/03 02:26:12;;;;;;;3.40;1.80;;;10.90;99.90;;;;;;5032565;28;20463;-48
2024/03/03 02:28:41;;;;;;;2.80;1.90;;;10.90;99.90;;;;;;5050291;28;20934;-46
2024/03/03 02:31:11;;;;;;;2.53;1.93;;;10.90;99.90;;;;;;5029476;28;21001;-46
2024/03/03 02:33:40;;;;;;;3.37;2.47;;;10.90;99.90;;;;;;5014338;28;20733;-51
2024/03/03 02:36:11;;;;;;;4.60;2.50;;;10.90;99.90;;;;;;5047306;28;20940;-46
2024/03/03 02:38:47;;;;;;;2.90;2.40;;;10.80;99.90;;;;;;5049348;28;20432;-46
2024/03/03 02:41:16;;;;;;;2.70;2.03;;;10.80;99.90;;;;;;5035964;28;20463;-49
2024/03/03 02:43:46;;;;;;;3.90;2.20;;;10.80;99.90;;;;;;5049409;28;20977;-44
2024/03/03 02:46:14;;;;;;;3.10;2.10;;;10.80;99.90;;;;;;5049923;28;20508;-45
2024/03/03 02:48:42;;;;;;;3.40;2.30;;;10.80;99.90;;;;;;5048891;28;20425;-46
2024/03/03 02:51:12;;;;;;;2.60;2.10;;;10.80;99.90;;;;;;5044435;28;20517;-45
2024/03/03 02:53:41;;;;;;;2.70;2.23;;;10.80;99.90;;;;;;5050104;28;20469;-46
2024/03/03 02:56:13;;;;;;;2.60;2.10;;;10.80;99.90;;;;;;5044045;28;20468;-44
2024/03/03 02:58:41;;;;;;;3.83;2.63;;;10.80;99.90;;;;;;5031753;28;20887;-47
2024/03/03 03:01:12;;;;;;;4.43;3.17;;;10.80;99.90;;;;;;5031311;28;20460;-45
2024/03/03 03:03:41;;;;;;;4.30;2.73;;;10.80;99.90;;;;;;5029009;28;20437;-51
2024/03/03 03:06:11;;;;;;;3.77;3.00;;;10.80;99.90;;;;;;5022076;28;20499;-47
2024/03/03 03:08:39;;;;;;;3.63;2.63;;;10.80;99.90;;;;;;5029580;28;20424;-46
2024/03/03 03:11:07;;;;;;;3.20;2.90;;;10.80;99.90;;;;;;5030300;28;20467;-47
2024/03/03 03:13:38;;;;;;;3.47;2.60;;;10.80;99.90;;;;;;5046607;28;20459;-46
2024/03/03 03:16:09;;;;;;;3.23;2.67;;;10.80;99.90;;;;;;5047886;28;20461;-46
2024/03/03 03:18:38;;;;;;;4.57;3.27;;;10.80;99.90;;;;;;5047503;28;20795;-45
2024/03/03 03:21:07;;;;;;;5.10;3.77;;;10.80;99.90;;;;;;5022416;28;20466;-47
2024/03/03 03:23:37;;;;;;;5.70;3.70;;;10.80;99.90;;;;;;5047848;28;20438;-46
2024/03/03 03:26:07;;;;;;;4.50;3.77;;;10.80;99.90;;;;;;5049397;28;20873;-46
2024/03/03 03:28:35;;;;;;;4.30;3.20;;;10.80;99.90;;;;;;5050146;28;20425;-46
2024/03/03 03:31:08;;;;;;;4.90;4.13;;;10.80;99.90;;;;;;5045988;28;20521;-45
2024/03/03 03:33:37;;;;;;;4.77;3.27;;;10.80;99.90;;;;;;5048827;28;20574;-47
2024/03/03 03:36:09;;;;;;;4.10;3.40;;;10.80;99.90;;;;;;5042378;28;20587;-46
2024/03/03 03:38:38;;;;;;;4.13;3.17;;;10.80;99.90;;;;;;5049969;28;20471;-47
2024/03/03 03:41:06;;;;;;;5.80;3.93;;;10.80;99.90;;;;;;5049499;28;20447;-47
2024/03/03 03:43:34;;;;;;;4.20;3.50;;;10.80;99.90;;;;;;5047682;28;20947;-46
2024/03/03 03:46:02;;;;;;;4.67;3.97;;;10.80;99.90;;;;;;5049169;28;20471;-45
2024/03/03 03:48:32;;;;;;;5.97;4.40;;;10.80;99.90;;;;;;5049369;28;20440;-45
2024/03/03 03:51:01;;;;;;;5.67;3.87;;;10.80;99.90;;;;;;5046775;28;20477;-47
2024/03/03 03:53:31;;;;;;;4.00;3.23;;;10.70;99.90;;;;;;5051568;28;20617;-45
2024/03/03 03:56:00;;;;;;;4.10;3.37;;;10.80;99.90;;;;;;5052637;28;20538;-47
2024/03/03 03:58:28;;;;;;;5.17;4.10;;;10.70;99.90;;;;;;5033505;28;20477;-47
2024/03/03 04:00:56;;;;;;;4.50;3.90;;;10.80;99.90;;;;;;5052871;28;20496;-46
2024/03/03 04:03:27;;;;;;;5.20;3.80;;;10.80;99.90;;;;;;5052844;28;20942;-46
2024/03/03 04:05:58;;;;;;;5.70;3.87;;;10.80;99.90;;;;;;5041319;28;20472;-46
2024/03/03 04:08:27;;;;;;;5.03;3.83;;;10.80;99.90;;;;;;5051801;28;20436;-44
2024/03/03 04:10:58;;;;;;;5.40;4.20;;;10.80;99.90;;;;;;5049047;28;20530;-48
2024/03/03 04:13:27;;;;;;;5.50;3.47;;;10.70;99.90;;;;;;5045214;28;20445;-46
2024/03/03 04:15:56;;;;;;;5.63;3.50;;;10.80;99.90;;;;;;5050324;28;20475;-48
2024/03/03 04:18:27;;;;;;;4.37;3.70;;;10.70;99.90;;;;;;5050031;28;20997;-48
2024/03/03 04:20:59;;;;;;;3.90;3.17;;;10.70;99.90;;;;;;5049163;28;20469;-47
2024/03/03 04:23:27;;;;;;;6.93;4.43;;;10.70;99.90;;;;;;5049840;28;20817;-47
2024/03/03 04:25:56;;;;;;;6.77;4.17;;;10.70;99.90;;;;;;5032172;28;21019;-48
2024/03/03 04:28:27;;;;;;;6.10;4.47;;;10.70;99.90;;;;;;5052453;28;20874;-47
2024/03/03 04:30:57;;;;;;;4.37;3.63;;;10.70;99.90;;;;;;5048560;28;20471;-45
2024/03/03 04:33:27;;;;;;;6.20;4.57;;;10.70;99.90;;;;;;5050999;28;20453;-46
2024/03/03 04:35:58;;;;;;;7.23;4.73;;;10.70;99.90;;;;;;5049366;28;20832;-44
2024/03/03 04:38:27;;;;;;;6.03;4.77;;;10.70;99.90;;;;;;5052118;28;20480;-46
2024/03/03 04:40:57;;;;;;;7.10;4.47;;;10.70;99.90;;;;;;5051008;28;20464;-46
2024/03/03 04:43:26;;;;;;;6.30;4.97;;;10.70;99.90;;;;;;5050840;28;20427;-44
2024/03/03 04:45:53;;;;;;;6.37;4.60;;;10.70;99.90;;;;;;5051923;28;20452;-45
2024/03/03 04:48:27;;;;;;;3.93;3.50;;;10.70;99.90;;;;;;5050901;28;20446;-47
2024/03/03 04:50:58;;;;;;;6.27;4.40;;;10.70;99.90;;;;;;5049013;28;20457;-46
2024/03/03 04:53:27;;;;;;;5.57;3.93;;;10.70;99.90;;;;;;5052399;28;20525;-45
2024/03/03 04:55:57;;;;;;;6.83;5.50;;;10.70;99.90;;;;;;5047306;28;20903;-46
2024/03/03 04:58:26;;;;;;;5.47;4.53;;;10.70;99.90;;;;;;5051325;28;20550;-45
2024/03/03 05:00:56;;;;;;;5.50;4.93;;;10.70;99.90;;;;;;5049624;28;20461;-47
2024/03/03 05:03:27;;;;;;;5.17;4.47;;;10.70;99.90;;;;;;5049772;28;20454;-47
2024/03/03 05:05:56;;;;;;;5.10;3.63;;;10.70;99.90;;;;;;5045403;28;20475;-47
2024/03/03 05:08:25;;;;;;;4.63;3.97;;;10.70;99.90;;;;;;5051256;28;20435;-46
2024/03/03 05:10:56;;;;;;;5.43;4.73;;;10.70;99.90;;;;;;5047470;28;20472;-46
2024/03/03 05:13:27;;;;;;;6.87;4.80;;;10.70;99.90;;;;;;5050339;28;20447;-46
2024/03/03 05:15:55;;;;;;;6.27;4.30;;;10.70;99.90;;;;;;5049516;28;20480;-47
2024/03/03 05:18:27;;;;;;;6.40;5.47;;;10.70;99.90;;;;;;5046141;28;20457;-47
2024/03/03 05:20:57;;;;;;;6.03;4.20;;;10.70;99.90;;;;;;5042343;28;20483;-46
2024/03/03 05:23:28;;;;;;;6.60;4.30;;;10.70;99.90;;;;;;5050320;28;20685;-45
2024/03/03 05:25:56;;;;;;;6.10;4.63;;;10.70;99.90;;;;;;5049095;28;20481;-47
2024/03/03 05:28:28;;;;;;;5.57;4.33;;;10.70;99.90;;;;;;5043848;28;20521;-46
2024/03/03 05:30:58;;;;;;;6.50;4.50;;;10.70;99.90;;;;;;5030840;28;20461;-47
2024/03/03 05:33:27;;;;;;;4.87;3.90;;;10.60;99.90;;;;;;5051928;28;20868;-46
2024/03/03 05:35:56;;;;;;;5.83;3.83;;;10.60;99.90;;;;;;5042422;28;20471;-47
2024/03/03 05:38:27;;;;;;;5.97;4.50;;;10.70;99.90;;;;;;5051437;28;20803;-48
2024/03/03 05:40:57;;;;;;;4.67;4.10;;;10.70;99.90;;;;;;5049287;28;20468;-51
2024/03/03 05:43:25;;;;;;;5.87;4.30;;;10.70;99.90;;;;;;5049078;28;20450;-48
2024/03/03 05:45:53;;;;;;;5.03;3.80;;;10.70;99.90;;;;;;5049619;28;20511;-47
2024/03/03 05:48:22;;;;;;;5.13;4.60;;;10.70;99.90;;;;;;5031502;28;21025;-45
2024/03/03 05:50:55;;;;;;;5.23;4.30;;;10.70;99.90;;;;;;5042721;28;20555;-45
2024/03/03 05:53:24;;;;;;;6.23;4.30;;;10.70;99.90;;;;;;5048940;28;20448;-44
2024/03/03 05:55:57;;;;;;;5.37;3.73;;;10.70;99.90;;;;;;5048427;28;20515;-47
2024/03/03 05:58:27;;;;;;;6.17;4.23;;;10.60;99.90;;;;;;5055721;28;20540;-45
2024/03/03 06:00:57;;;;;;;5.83;3.50;;;10.60;99.90;;;;;;5044802;28;20456;-45
2024/03/03 06:03:27;;;;;;;6.30;4.57;;;10.70;99.90;;;;;;5050254;28;20501;-45
2024/03/03 06:05:56;;;;;;;7.10;5.50;;;10.60;99.90;;;;;;5043103;28;20526;-46
2024/03/03 06:08:27;;;;;;;8.70;5.10;;;10.70;99.90;;;;;;5050689;28;20995;-45
2024/03/03 06:10:56;;;;;;;4.87;4.20;;;10.70;99.90;;;;;;5047202;28;21060;-47
2024/03/03 06:13:27;;;;;;;4.60;3.60;;;10.70;99.90;;;;;;5046029;28;20435;-46
2024/03/03 06:15:56;;;;;;;5.33;4.43;;;10.70;99.90;;;;;;5045894;28;20471;-47
2024/03/03 06:18:27;;;;;;;4.60;3.20;;;10.60;99.90;;;;;;5045882;28;20451;-47
2024/03/03 06:20:56;;;;;;;5.30;3.40;;;10.70;99.90;;;;;;5039622;28;20491;-47
2024/03/03 06:23:26;;;;;;;4.57;3.60;;;10.60;99.90;;;;;;5048531;28;20797;-46
2024/03/03 06:25:55;;;;;;;4.93;3.53;;;10.70;99.90;;;;;;5045846;28;20472;-46
2024/03/03 06:28:28;;;;;;;3.83;3.10;;;10.60;99.90;;;;;;5050792;28;20794;-45
2024/03/03 06:30:57;;;;;;;3.57;3.23;;;10.70;99.90;;;;;;5048182;28;20480;-45
2024/03/03 06:33:27;;;;;;;4.13;3.10;;;10.60;99.90;;;;;;5049706;28;20846;-45
2024/03/03 06:35:58;;;;;;;8.03;4.90;;;10.70;99.90;;;;;;5043854;28;20975;-46
2024/03/03 06:38:27;;;;;;;4.97;3.87;;;10.60;99.90;;;;;;5056471;28;20512;-46
2024/03/03 06:40:57;;;;;;;3.87;3.20;;;10.60;99.90;;;;;;5046136;28;20475;-45
2024/03/03 06:43:29;;;;;;;4.10;3.70;;;10.60;99.90;;;;;;5049343;28;20423;-45
2024/03/03 06:45:57;;;;;;;4.23;3.80;;;10.60;99.90;;;;;;5029903;28;20489;-46
2024/03/03 06:48:26;;;;;;;4.60;3.83;;;10.60;99.90;;;;;;5048118;28;20453;-46
2024/03/03 06:50:57;;;;;;;4.43;4.00;;;10.60;99.90;;;;;;5040017;28;20472;-47
2024/03/03 06:53:29;;;;;;;5.97;4.10;;;10.60;99.90;;;;;;5050512;28;20437;-46
2024/03/03 06:55:57;;;;;;;5.80;3.87;;;10.60;99.90;;;;;;5047809;28;20985;-46
2024/03/03 06:58:28;;;;;;;4.97;3.93;;;10.60;99.90;;;;;;5047322;28;20860;-47
2024/03/03 07:00:57;;;;;;;5.53;3.63;;;10.60;99.90;;;;;;5046049;28;21022;-46
2024/03/03 07:03:53;;;;;;;5.20;3.73;;;10.60;99.90;;;;;;5049516;28;20437;-45
2024/03/03 07:06:22;;;;;;;6.00;4.23;;;10.60;99.90;;;;;;5044502;28;20559;-45
2024/03/03 07:08:51;;;;;;;5.33;4.20;;;10.60;99.90;;;;;;5049759;28;20439;-48
2024/03/03 07:11:20;;;;;;;5.50;4.27;;;10.60;99.90;;;;;;5047750;28;20473;-46
2024/03/03 07:13:54;;;;;;;6.83;4.43;;;10.60;99.90;;;;;;5038103;28;20461;-46
2024/03/03 07:16:23;;;;;;;4.30;3.30;;;10.60;99.90;;;;;;5050483;28;20529;-51
2024/03/03 07:18:55;;;;;;;3.60;2.93;;;10.60;99.90;;;;;;5043785;28;20514;-47
2024/03/03 07:21:28;;;;;;;5.87;4.47;;;10.60;99.90;;;;;;5030482;28;20550;-47
2024/03/03 07:23:57;;;;;;;6.33;3.93;;;10.60;99.90;;;;;;5044004;28;20420;-44
2024/03/03 07:26:26;;;;;;;4.00;3.23;;;10.60;99.90;;;;;;5058497;28;20455;-45
2024/03/03 07:28:59;;;;;;;4.47;3.70;;;10.60;99.90;;;;;;5045668;28;20450;-45
2024/03/03 07:31:27;;;;;;;4.17;3.77;;;10.60;99.90;;;;;;5053657;28;20461;-45
2024/03/03 07:33:57;;;;;;;4.87;4.07;;;10.60;99.90;;;;;;5051623;28;20480;-44
2024/03/03 07:36:27;;;;;;;3.67;2.90;;;10.60;99.90;;;;;;5055000;28;20468;-46
2024/03/03 07:38:57;;;;;;;5.20;3.70;;;10.60;99.90;;;;;;5053958;28;20454;-45
2024/03/03 07:41:26;;;;;;;6.43;4.50;;;10.60;99.90;;;;;;5053547;28;20479;-45
2024/03/03 07:43:55;;;;;;;8.87;4.50;;;10.60;99.90;;;;;;5052127;28;20462;-46
2024/03/03 07:46:29;;;;;;;7.70;5.03;;;10.60;99.90;;;;;;5049934;28;20483;-45
2024/03/03 07:48:58;;;;;;;7.63;3.47;;;10.60;99.90;;;;;;5043790;28;20528;-45
2024/03/03 07:51:26;;;;;;;6.80;4.83;;;10.60;99.90;;;;;;5048253;28;20493;-45
2024/03/03 07:53:58;;;;;;;5.00;4.30;;;10.60;99.90;;;;;;5052180;28;20942;-44
2024/03/03 07:56:27;;;;;;;7.03;4.90;;;10.60;99.90;;;;;;5034343;28;20813;-44
2024/03/03 07:58:55;;;;;;;6.40;4.90;;;10.60;99.90;;;;;;5049073;28;20443;-45
2024/03/03 08:01:32;;;;;;;6.13;5.27;;;10.60;99.90;;;;;;5052148;28;20895;-44
2024/03/03 08:04:01;;;;;;;8.47;5.80;;;10.60;99.90;;;;;;5049058;28;21964;-46
2024/03/03 08:06:29;;;;;;;8.00;5.50;;;10.60;99.90;;;;;;5052836;28;20470;-45
2024/03/03 08:09:01;;;;;;;8.70;6.10;;;10.60;99.90;;;;;;5051006;28;20493;-45
2024/03/03 08:11:32;;;;;;;5.47;3.93;;;10.60;99.90;;;;;;5058296;28;20459;-44
2024/03/03 08:14:03;;;;;;;8.03;6.60;;;10.60;99.90;;;;;;5047305;28;20450;-45
2024/03/03 08:16:34;;;;;;;6.30;5.70;;;10.60;99.90;;;;;;5057976;28;20510;-45
2024/03/03 08:19:02;;;;;;;6.20;4.50;;;10.60;99.90;;;;;;5050712;28;20460;-46
2024/03/03 08:21:30;;;;;;;8.10;5.10;;;10.60;99.90;;;;;;5051803;28;20486;-46
2024/03/03 08:23:58;;;;;;;5.90;4.13;;;10.60;99.90;;;;;;5052442;28;20451;-45
2024/03/03 08:26:27;;;;;;;5.60;4.80;;;10.60;99.90;;;;;;5052425;28;20465;-45
2024/03/03 08:28:57;;;;;;;5.13;4.37;;;10.60;99.90;;;;;;5048853;28;20541;-45
2024/03/03 08:31:26;;;;;;;5.93;4.60;;;10.60;99.90;;;;;;5052599;28;20967;-45
2024/03/03 08:33:58;;;;;;;7.67;5.20;;;10.60;99.90;;;;;;5048571;28;20539;-45
2024/03/03 08:36:27;;;;;;;11.83;8.03;;;10.60;99.90;;;;;;5056555;28;20464;-44
2024/03/03 08:38:56;;;;;;;7.80;5.73;;;10.60;99.90;;;;;;5044612;28;20671;-45
2024/03/03 08:41:25;;;;;;;8.70;5.90;;;10.60;99.90;;;;;;5050764;28;20477;-44
2024/03/03 08:43:54;;;;;;;5.53;4.47;;;10.60;99.90;;;;;;5050648;28;20817;-45
2024/03/03 08:46:24;;;;;;;6.07;5.47;;;10.60;99.90;;;;;;5045663;28;20467;-46
2024/03/03 08:48:57;;;;;;;5.07;4.00;;;10.60;99.90;;;;;;5049142;28;20431;-44
2024/03/03 08:51:27;;;;;;;3.87;3.03;;;10.60;99.90;;;;;;5049552;28;20467;-45
2024/03/03 08:53:56;;;;;;;6.60;4.90;;;10.60;99.90;;;;;;5044502;28;20436;-44
2024/03/03 08:56:26;;;;;;;5.67;4.00;;;10.60;99.90;;;;;;5052583;28;20501;-46
2024/03/03 08:58:56;;;;;;;5.27;4.00;;;10.60;99.90;;;;;;5031264;28;20441;-44
2024/03/03 09:01:26;;;;;;;3.90;3.10;;;10.60;99.90;;;;;;5057557;28;20464;-45
2024/03/03 09:03:58;;;;;;;6.10;4.37;;;10.60;99.90;;;;;;5040943;28;20421;-44
2024/03/03 09:06:27;;;;;;;5.07;3.57;;;10.60;99.90;;;;;;5050235;28;20459;-45
2024/03/03 09:08:55;;;;;;;7.27;3.30;;;10.60;99.90;;;;;;5051107;28;20502;-44
2024/03/03 09:11:25;;;;;;;4.70;3.57;;;10.60;99.90;;;;;;5046781;28;20468;-45
2024/03/03 09:13:56;;;;;;;4.00;3.13;;;10.60;99.90;;;;;;5029748;28;20535;-45
2024/03/03 09:16:24;;;;;;;6.33;4.67;;;10.60;99.90;;;;;;5049157;28;20589;-47
2024/03/03 09:18:56;;;;;;;7.53;4.03;;;10.60;99.90;;;;;;5045792;28;20440;-45
2024/03/03 09:21:25;;;;;;;4.83;3.50;;;10.60;99.90;;;;;;5049587;28;20620;-44
2024/03/03 09:23:56;;;;;;;3.80;2.90;;;10.60;99.90;;;;;;5048174;28;20434;-43
2024/03/03 09:26:26;;;;;;;4.50;3.17;;;10.60;99.90;;;;;;5053010;28;20473;-45
2024/03/03 09:28:54;;;;;;;5.70;3.80;;;10.60;99.90;;;;;;5026743;28;20527;-44
2024/03/03 09:31:26;;;;;;;6.17;4.07;;;10.60;99.90;;;;;;5051214;28;20988;-45
2024/03/03 09:33:55;;;;;;;5.87;3.40;;;10.60;99.90;;;;;;5046669;28;20453;-45
2024/03/03 09:36:28;;;;;;;4.80;3.30;;;10.60;99.90;;;;;;5050786;28;20461;-45
2024/03/03 09:38:57;;;;;;;5.53;3.80;;;10.60;99.90;;;;;;5048681;28;20436;-44
2024/03/03 09:41:25;;;;;;;3.40;2.83;;;10.60;99.90;;;;;;5051047;28;20525;-42
2024/03/03 09:44:09;;;;;;;3.77;2.73;;;10.60;99.90;;;;;;5044749;28;20454;-45
2024/03/03 09:46:38;;;;;;;4.30;3.10;;;10.60;99.90;;;;;;5050604;28;20466;-45
2024/03/03 09:49:12;;;;;;;5.70;3.13;;;10.60;99.90;;;;;;5045824;28;20449;-45
2024/03/03 09:51:44;;;;;;;3.60;3.07;;;10.60;99.90;;;;;;5050386;28;21020;-45
2024/03/03 09:54:14;;;;;;;3.67;2.67;;;10.60;99.90;;;;;;5030325;28;20434;-45
2024/03/03 09:56:44;;;;;;;3.60;2.63;;;10.60;99.90;;;;;;5050669;28;20462;-44
2024/03/03 09:59:15;;;;;;;4.10;3.10;;;10.60;99.90;;;;;;5049918;28;20444;-44
2024/03/03 10:01:50;;;;;;;3.70;2.70;;;10.60;99.90;;;;;;5050526;28;20550;-45
2024/03/03 10:04:22;;;;;;;3.13;2.10;;;10.60;99.90;;;;;;5042391;28;20505;-45
2024/03/03 10:06:56;;;;;;;3.83;3.13;;;10.60;99.90;;;;;;5051823;28;20472;-45
2024/03/03 10:09:29;;;;;;;3.73;2.30;;;10.60;99.90;;;;;;5045672;28;20461;-44
2024/03/03 10:11:58;;;;;;;2.60;2.40;;;10.60;99.90;;;;;;5047027;28;20461;-45
2024/03/03 10:14:28;;;;;;;4.50;2.97;;;10.60;99.90;;;;;;5051003;28;20862;-44
2024/03/03 10:16:57;;;;;;;3.30;2.60;;;10.60;99.90;;;;;;5041951;28;21050;-45
2024/03/03 10:19:29;;;;;;;2.83;2.23;;;10.60;99.90;;;;;;5045905;28;20439;-44
2024/03/03 10:22:00;;;;;;;3.27;2.70;;;10.60;99.90;;;;;;5047361;28;20575;-44
2024/03/03 10:24:29;;;;;;;3.47;2.40;;;10.60;99.90;;;;;;5048483;28;20513;-44
2024/03/03 10:27:00;;;;;;;5.10;3.07;;;10.60;99.90;;;;;;5047406;28;20863;-44
2024/03/03 10:29:28;;;;;;;2.87;2.57;;;10.60;99.90;;;;;;5049700;28;20435;-45
2024/03/03 10:32:09;;;;;;;2.90;2.43;;;10.60;99.90;;;;;;5045482;28;20471;-44
2024/03/03 10:34:37;;;;;;;4.03;2.50;;;10.60;99.90;;;;;;5047183;28;20878;-44
2024/03/03 10:37:08;;;;;;;4.33;3.53;;;10.60;99.90;;;;;;5042996;28;20466;-45
2024/03/03 10:39:38;;;;;;;2.60;2.20;;;10.60;99.90;;;;;;5050379;28;20426;-44
2024/03/03 10:42:08;;;;;;;2.90;2.60;;;10.60;99.90;;;;;;5044931;28;20477;-44
2024/03/03 10:44:37;;;;;;;3.03;2.37;;;10.70;99.90;;;;;;5042491;28;20531;-45
2024/03/03 10:47:08;;;;;;;3.40;2.27;;;10.60;99.90;;;;;;5048684;28;20837;-45
2024/03/03 10:49:39;;;;;;;3.07;2.60;;;10.70;99.90;;;;;;5035824;28;20446;-43
2024/03/03 10:52:10;;;;;;;3.90;2.80;;;10.60;99.90;;;;;;5049387;28;21046;-44
2024/03/03 10:54:40;;;;;;;3.10;2.50;;;10.70;99.90;;;;;;5026033;28;20833;-45
2024/03/03 10:57:10;;;;;;;3.83;3.00;;;10.60;99.90;;;;;;5051751;28;20898;-45
2024/03/03 10:59:39;;;;;;;3.00;2.50;;;10.70;99.90;;;;;;5051696;28;20576;-45
2024/03/03 11:02:14;;;;;;;2.90;2.47;;;10.70;99.90;;;;;;5047789;28;20474;-44
2024/03/03 11:04:43;;;;;;;2.70;2.10;;;10.70;99.90;;;;;;5047253;28;20469;-45
2024/03/03 11:07:12;;;;;;;3.70;2.37;;;10.70;99.90;;;;;;5049371;28;20814;-45
2024/03/03 11:09:43;;;;;;;3.33;2.63;;;10.70;99.90;;;;;;5049208;28;20445;-45
2024/03/03 11:12:17;;;;;;;3.63;2.40;;;10.70;99.90;;;;;;5054729;28;20455;-45
2024/03/03 11:14:46;;;;;;;4.50;3.20;;;10.70;99.90;;;;;;5042157;28;20519;-45
2024/03/03 11:17:18;;;;;;;4.00;2.83;;;10.80;99.90;;;;;;5048643;28;20602;-44
2024/03/03 11:19:48;;;;;;;3.30;2.80;;;10.80;99.90;;;;;;5048033;28;20447;-44
2024/03/03 11:22:22;;;;;;;3.70;3.00;;;10.80;99.90;;;;;;5049430;28;20503;-44
2024/03/03 11:24:54;;;;;;;4.77;3.67;;;10.70;99.90;;;;;;5054743;28;20450;-44
2024/03/03 11:27:29;;;;;;;3.40;3.00;;;10.80;99.90;;;;;;5051399;28;20475;-45
2024/03/03 11:29:57;;;;;;;4.87;3.23;;;10.70;99.90;;;;;;5046773;28;20519;-46
2024/03/03 11:32:27;;;;;;;3.10;2.40;;;10.80;99.90;;;;;;5049588;28;20489;-45
2024/03/03 11:34:57;;;;;;;5.50;3.20;;;10.80;99.90;;;;;;5045008;28;20498;-46
2024/03/03 11:37:28;;;;;;;3.57;2.80;;;10.80;99.90;;;;;;5044563;28;20565;-44
2024/03/03 11:39:59;;;;;;;3.40;2.47;;;10.70;99.90;;;;;;5054731;28;20876;-44
2024/03/03 11:42:38;;;;;;;3.57;3.00;;;10.70;99.90;;;;;;5054081;28;20501;-45
2024/03/03 11:45:09;;;;;;;4.03;2.93;;;10.80;99.90;;;;;;5023310;28;20448;-44
2024/03/03 11:47:39;;;;;;;3.10;2.60;;;10.70;99.90;;;;;;5044904;28;20464;-44
2024/03/03 11:50:18;;;;;;;5.03;3.67;;;10.80;99.90;;;;;;5042619;28;20437;-44
2024/03/03 11:52:49;;;;;;;4.13;2.77;;;10.70;99.90;;;;;;5047393;28;20494;-44
2024/03/03 11:55:24;;;;;;;4.07;2.80;;;10.80;99.90;;;;;;5046498;28;20497;-44
2024/03/03 11:57:55;;;;;;;2.87;2.10;;;10.70;99.90;;;;;;5043655;28;20453;-45
2024/03/03 12:00:28;;;;;;;3.60;3.20;;;10.80;99.90;;;;;;5046225;28;20514;-44
2024/03/03 12:02:58;;;;;;;4.00;3.00;;;10.80;99.90;;;;;;5044153;28;21076;-45
2024/03/03 12:05:27;;;;;;;4.77;3.07;;;10.70;99.90;;;;;;5046588;28;20467;-45
2024/03/03 12:07:57;;;;;;;12.37;8.63;;;10.80;99.90;;;;;;5042816;28;20967;-45
2024/03/03 12:10:27;;;;;;;12.63;8.80;;;10.80;99.90;;;;;;5048213;28;20446;-44
2024/03/03 12:12:58;;;;;;;8.37;6.87;;;10.90;99.90;;;;;;5048149;28;21056;-45
2024/03/03 12:15:27;;;;;;;12.67;8.90;;;10.90;99.90;;;;;;5052681;28;20446;-44
2024/03/03 12:17:57;;;;;;;11.77;8.03;;;10.90;99.90;;;;;;5048887;28;20480;-44
2024/03/03 12:20:28;;;;;;;8.83;7.20;;;10.90;99.90;;;;;;5049343;28;20949;-44
2024/03/03 12:22:58;;;;;;;8.80;7.20;;;10.90;99.90;;;;;;5049414;28;20464;-44
2024/03/03 12:25:26;;;;;;;10.60;7.10;;;10.90;99.90;;;;;;5050332;28;21225;-44
2024/03/03 12:27:57;;;;;;;8.50;6.20;;;10.90;99.90;;;;;;5047852;28;20916;-44
2024/03/03 12:30:35;;;;;;;8.60;6.13;;;10.90;99.90;;;;;;5052847;28;20490;-45
2024/03/03 12:33:06;;;;;;;8.80;6.30;;;10.90;99.90;;;;;;5050121;28;20433;-45
2024/03/03 12:35:37;;;;;;;8.93;6.20;;;10.90;99.90;;;;;;5045978;28;20545;-47
2024/03/03 12:38:09;;;;;;;7.83;6.13;;;10.90;99.90;;;;;;5049468;28;20432;-51
2024/03/03 12:40:37;;;;;;;6.50;4.90;;;10.90;99.90;;;;;;5050484;28;20804;-46
2024/03/03 12:43:05;;;;;;;7.47;4.90;;;10.90;99.90;;;;;;5048253;28;20483;-45
2024/03/03 12:45:37;;;;;;;7.17;5.67;;;10.90;99.90;;;;;;5045733;28;20888;-48
2024/03/03 12:48:08;;;;;;;6.40;5.30;;;10.90;99.90;;;;;;5033011;28;20487;-47
2024/03/03 12:50:39;;;;;;;6.73;4.87;;;11.00;99.90;;;;;;5049186;28;20488;-46
2024/03/03 12:53:08;;;;;;;8.00;4.83;;;10.90;99.90;;;;;;5051054;28;20432;-47
2024/03/03 12:55:53;;;;;;;7.13;4.70;;;11.00;99.90;;;;;;5050208;28;20466;-46
2024/03/03 12:58:25;;;;;;;5.77;4.60;;;11.00;99.90;;;;;;5040836;28;20964;-44
2024/03/03 13:00:56;;;;;;;13.90;10.63;;;10.90;99.90;;;;;;5049219;28;20487;-50